Time,TemperatureF,DewpointF,PressureIn,WindDirection,WindDirectionDegrees,WindSpeedMPH,WindSpeedGustMPH,Humidity,HourlyPrecipIn,Conditions,Clouds,dailyrainin,SolarRadiationWatts/m^2,SoftwareType,DateUTC
2013-07-12 00:01:00,72.0,72.0,-100.00,SSE,163,4.0,-999.0,97,0.00,,,-99.99,0.000000,,2013-07-12 04:01:00,
2013-07-12 00:11:00,72.0,72.0,-100.00,SSE,150,3.0,-999.0,98,0.00,,,-99.99,0.000000,,2013-07-12 04:11:00,
2013-07-12 00:22:00,72.0,72.0,-100.00,South,184,1.0,-999.0,98,0.00,,,-99.99,0.000000,,2013-07-12 04:22:00,
2013-07-12 00:43:00,72.0,72.0,-100.00,NE,39,2.0,-999.0,98,0.00,,,-99.99,0.000000,,2013-07-12 04:43:00,
2013-07-12 00:53:00,72.0,71.0,-100.00,SSE,157,1.0,-999.0,99,0.00,,,-99.99,0.000000,,2013-07-12 04:53:00,
2013-07-12 01:02:00,72.0,71.0,-100.00,SSE,157,1.0,-999.0,99,0.00,,,-99.99,0.000000,,2013-07-12 05:02:00,
2013-07-12 01:11:00,71.0,71.0,-100.00,SSE,166,3.0,-999.0,99,0.00,,,-99.99,0.000000,,2013-07-12 05:11:00,
2013-07-12 01:22:00,71.0,71.0,-100.00,SE,137,2.0,-999.0,99,0.00,,,-99.99,0.000000,,2013-07-12 05:22:00,
2013-07-12 01:32:00,71.0,71.0,-100.00,West,279,1.0,-999.0,100,0.00,,,-99.99,0.000000,,2013-07-12 05:32:00,
2013-07-12 01:53:00,71.0,71.0,-100.00,WNW,298,1.0,-999.0,100,0.00,,,-99.99,0.000000,,2013-07-12 05:53:00,
2013-07-12 02:01:00,71.0,71.0,-100.00,WNW,298,1.0,-999.0,100,0.00,,,-99.99,0.000000,,2013-07-12 06:01:00,
2013-07-12 02:11:00,71.0,71.0,-100.00,WNW,298,1.0,-999.0,100,0.00,,,-99.99,0.000000,,2013-07-12 06:11:00,
2013-07-12 02:22:00,71.0,71.0,-100.00,WNW,286,3.0,-999.0,100,0.00,,,-99.99,0.000000,,2013-07-12 06:22:00,
2013-07-12 02:33:00,71.0,71.0,-100.00,NNW,335,1.0,-999.0,100,0.00,,,-99.99,0.000000,,2013-07-12 06:33:00,
2013-07-12 02:42:00,71.0,71.0,-100.00,NNW,335,1.0,-999.0,100,0.00,,,-99.99,0.000000,,2013-07-12 06:42:00,
2013-07-12 02:52:00,71.0,71.0,-100.00,NNE,25,1.0,-999.0,100,0.00,,,-99.99,0.000000,,2013-07-12 06:52:00,
2013-07-12 03:02:00,70.0,70.0,-100.00,ESE,108,3.0,-999.0,100,0.00,,,-99.99,0.000000,,2013-07-12 07:02:00,
2013-07-12 03:22:00,70.0,70.0,-100.00,SSE,147,4.0,-999.0,100,0.00,,,-99.99,0.000000,,2013-07-12 07:22:00,
2013-07-12 03:32:00,70.0,70.0,-100.00,SSE,147,3.0,-999.0,100,0.00,,,-99.99,0.000000,,2013-07-12 07:32:00,
2013-07-12 03:52:00,70.0,70.0,-100.00,SSW,203,1.0,-999.0,100,0.00,,,-99.99,0.000000,,2013-07-12 07:52:00,
2013-07-12 04:01:00,70.0,70.0,-100.00,NE,44,1.0,-999.0,100,0.00,,,-99.99,0.000000,,2013-07-12 08:01:00,
2013-07-12 04:21:00,70.0,70.0,-100.00,SE,129,1.0,-999.0,100,0.00,,,-99.99,0.000000,,2013-07-12 08:21:00,
2013-07-12 04:32:00,70.0,70.0,-100.00,ESE,117,1.0,-999.0,100,0.00,,,-99.99,0.000000,,2013-07-12 08:32:00,
2013-07-12 04:53:00,69.0,69.0,-100.00,ESE,121,1.0,-999.0,100,0.00,,,-99.99,0.000000,,2013-07-12 08:53:00,
2013-07-12 05:02:00,70.0,70.0,-100.00,ESE,113,2.0,-999.0,100,0.00,,,-99.99,0.000000,,2013-07-12 09:02:00,
2013-07-12 05:22:00,70.0,70.0,-100.00,ESE,115,2.0,-999.0,100,0.00,,,-99.99,0.000000,,2013-07-12 09:22:00,
2013-07-12 05:43:00,70.0,70.0,-100.00,SSE,154,1.0,-999.0,100,0.00,,,-99.99,0.000000,,2013-07-12 09:43:00,
2013-07-12 05:52:00,69.0,69.0,-100.00,SE,137,3.0,-999.0,100,0.00,,,-99.99,0.000000,,2013-07-12 09:52:00,
2013-07-12 06:11:00,69.0,69.0,-100.00,SSE,151,3.0,-999.0,100,0.00,,,-99.99,0.000000,,2013-07-12 10:11:00,
2013-07-12 06:22:00,70.0,70.0,-100.00,SSE,151,3.0,-999.0,100,0.00,,,-99.99,0.000000,,2013-07-12 10:22:00,
2013-07-12 06:42:00,70.0,70.0,-100.00,SE,139,3.0,-999.0,100,0.00,,,-99.99,0.000000,,2013-07-12 10:42:00,
2013-07-12 06:52:00,70.0,70.0,-100.00,NE,35,2.0,-999.0,100,0.00,,,-99.99,0.700000,,2013-07-12 10:52:00,
2013-07-12 07:12:00,70.0,70.0,-100.00,WNW,290,1.0,-999.0,100,0.00,,,-99.99,4.600000,,2013-07-12 11:12:00,
2013-07-12 07:22:00,70.0,70.0,-100.00,West,269,2.0,-999.0,100,0.00,,,-99.99,15.900000,,2013-07-12 11:22:00,
2013-07-12 07:32:00,70.0,70.0,-100.00,West,269,2.0,-999.0,100,0.00,,,-99.99,15.900000,,2013-07-12 11:32:00,
2013-07-12 07:53:00,71.0,71.0,-100.00,SSE,148,2.0,-999.0,100,0.00,,,-99.99,89.000000,,2013-07-12 11:53:00,
2013-07-12 08:11:00,73.0,73.0,-100.00,SW,224,1.0,-999.0,100,0.00,,,-99.99,131.699997,,2013-07-12 12:11:00,
2013-07-12 08:22:00,74.0,74.0,-100.00,West,262,1.0,-999.0,100,0.00,,,-99.99,196.800003,,2013-07-12 12:22:00,
2013-07-12 08:53:00,77.0,76.0,-100.00,SSW,206,2.0,-999.0,97,0.00,,,-99.99,285.700012,,2013-07-12 12:53:00,
2013-07-12 09:01:00,79.0,76.0,-100.00,South,174,2.0,-999.0,92,0.00,,,-99.99,338.799988,,2013-07-12 13:01:00,
2013-07-12 09:22:00,80.0,76.0,-100.00,South,169,4.0,-999.0,85,0.00,,,-99.99,392.500000,,2013-07-12 13:22:00,
2013-07-12 09:53:00,82.0,76.0,-100.00,SW,222,4.0,-999.0,81,0.00,,,-99.99,431.899994,,2013-07-12 13:53:00,
2013-07-12 10:02:00,82.0,76.0,-100.00,SW,222,4.0,-999.0,81,0.00,,,-99.99,431.899994,,2013-07-12 14:02:00,
2013-07-12 10:12:00,82.0,76.0,-100.00,SSW,209,4.0,-999.0,81,0.00,,,-99.99,534.000000,,2013-07-12 14:12:00,
2013-07-12 10:22:00,83.0,76.0,-100.00,South,180,4.0,-999.0,79,0.00,,,-99.99,602.400024,,2013-07-12 14:22:00,
2013-07-12 10:32:00,84.0,76.0,-100.00,SW,231,6.0,-999.0,78,0.00,,,-99.99,679.599976,,2013-07-12 14:32:00,
2013-07-12 10:53:00,83.0,76.0,-100.00,WSW,257,4.0,-999.0,78,0.00,,,-99.99,474.799988,,2013-07-12 14:53:00,
2013-07-12 11:02:00,84.0,76.0,-100.00,SW,233,3.0,-999.0,77,0.00,,,-99.99,675.900024,,2013-07-12 15:02:00,
2013-07-12 11:11:00,84.0,76.0,-100.00,SW,233,3.0,-999.0,77,0.00,,,-99.99,675.900024,,2013-07-12 15:11:00,
2013-07-12 11:22:00,84.0,76.0,-100.00,WSW,246,3.0,-999.0,75,0.00,,,-99.99,315.200012,,2013-07-12 15:22:00,
2013-07-12 11:33:00,84.0,76.0,-100.00,WSW,246,3.0,-999.0,75,0.00,,,-99.99,315.200012,,2013-07-12 15:33:00,
2013-07-12 11:43:00,85.0,76.0,-100.00,WSW,247,4.0,-999.0,73,0.00,,,-99.99,671.400024,,2013-07-12 15:43:00,
2013-07-12 11:53:00,86.0,75.0,-100.00,WSW,240,5.0,-999.0,70,0.00,,,-99.99,847.000000,,2013-07-12 15:53:00,
2013-07-12 12:01:00,86.0,75.0,-100.00,WSW,240,5.0,-999.0,70,0.00,,,-99.99,847.000000,,2013-07-12 16:01:00,
2013-07-12 12:11:00,85.0,75.0,-100.00,West,263,5.0,-999.0,71,0.00,,,-99.99,590.599976,,2013-07-12 16:11:00,
2013-07-12 12:22:00,87.0,75.0,-100.00,SW,233,4.0,-999.0,68,0.00,,,-99.99,820.000000,,2013-07-12 16:22:00,
2013-07-12 12:32:00,87.0,75.0,-100.00,SW,233,4.0,-999.0,68,0.00,,,-99.99,820.000000,,2013-07-12 16:32:00,
2013-07-12 12:43:00,87.0,74.0,-100.00,SW,215,6.0,-999.0,66,0.00,,,-99.99,805.000000,,2013-07-12 16:43:00,
2013-07-12 12:58:00,87.0,74.0,-100.00,SSW,207,5.0,-999.0,64,0.00,,,-99.99,572.299988,,2013-07-12 16:58:00,
2013-07-12 13:06:00,87.0,74.0,-100.00,SSW,207,5.0,-999.0,64,0.00,,,-99.99,572.299988,,2013-07-12 17:06:00,
2013-07-12 13:14:00,88.0,73.0,-100.00,SW,216,5.0,-999.0,60,0.00,,,-99.99,1012.000000,,2013-07-12 17:14:00,
2013-07-12 13:24:00,88.0,73.0,-100.00,SW,216,7.0,-999.0,59,0.00,,,-99.99,546.299988,,2013-07-12 17:24:00,
2013-07-12 13:45:00,88.0,72.0,-100.00,SW,234,6.0,-999.0,59,0.00,,,-99.99,730.000000,,2013-07-12 17:45:00,
2013-07-12 14:07:00,88.0,73.0,-100.00,WSW,240,5.0,-999.0,61,0.00,,,-99.99,614.900024,,2013-07-12 18:07:00,
2013-07-12 14:14:00,89.0,73.0,-100.00,SSW,203,8.0,-999.0,60,0.00,,,-99.99,622.500000,,2013-07-12 18:14:00,
2013-07-12 14:34:00,89.0,74.0,-100.00,SSE,160,7.0,-999.0,62,0.00,,,-99.99,818.000000,,2013-07-12 18:34:00,
2013-07-12 15:05:00,89.0,75.0,-100.00,South,174,7.0,-999.0,63,0.00,,,-99.99,884.000000,,2013-07-12 19:05:00,
2013-07-12 15:33:00,90.0,75.0,-100.00,SSW,196,6.0,-999.0,61,0.00,,,-99.99,927.000000,,2013-07-12 19:33:00,
2013-07-12 15:58:00,88.0,73.0,-100.00,SW,218,8.0,-999.0,61,0.00,,,-99.99,299.000000,,2013-07-12 19:58:00,
2013-07-12 16:14:00,88.0,73.0,-100.00,SW,218,8.0,-999.0,61,0.00,,,-99.99,299.000000,,2013-07-12 20:14:00,
2013-07-12 16:24:00,85.0,72.0,-100.00,WSW,244,17.0,-999.0,66,0.00,,,-99.99,239.600006,,2013-07-12 20:24:00,
2013-07-12 16:34:00,85.0,72.0,-100.00,WSW,244,17.0,-999.0,66,0.00,,,-99.99,239.600006,,2013-07-12 20:34:00,
2013-07-12 17:25:00,81.0,72.0,-100.00,WNW,291,9.0,-999.0,74,0.00,,,-99.99,319.399994,,2013-07-12 21:25:00,
2013-07-12 17:59:00,80.0,72.0,-100.00,NNW,342,4.0,-999.0,78,0.00,,,-99.99,202.600006,,2013-07-12 21:59:00,
2013-07-12 18:17:00,80.0,73.0,-100.00,North,357,4.0,-999.0,78,0.00,,,-99.99,223.899994,,2013-07-12 22:17:00,
2013-07-12 18:33:00,80.0,73.0,-100.00,NNE,23,3.0,-999.0,78,0.00,,,-99.99,204.699997,,2013-07-12 22:33:00,
2013-07-12 18:56:00,80.0,74.0,-100.00,NE,38,4.0,-999.0,81,0.00,,,-99.99,150.300003,,2013-07-12 22:56:00,
2013-07-12 19:04:00,79.0,73.0,-100.00,East,90,4.0,-999.0,82,0.00,,,-99.99,115.900002,,2013-07-12 23:04:00,
2013-07-12 19:14:00,79.0,73.0,-100.00,East,90,4.0,-999.0,82,0.00,,,-99.99,115.900002,,2013-07-12 23:14:00,
2013-07-12 19:58:00,78.0,73.0,-100.00,East,89,4.0,-999.0,85,0.00,,,-99.99,58.500000,,2013-07-12 23:58:00,
2013-07-12 20:06:00,78.0,73.0,-100.00,ESE,107,3.0,-999.0,86,0.00,,,-99.99,39.599998,,2013-07-13 00:06:00,
2013-07-12 20:25:00,77.0,74.0,-100.00,SE,142,2.0,-999.0,88,0.00,,,-99.99,21.500000,,2013-07-13 00:25:00,
2013-07-12 20:33:00,77.0,74.0,-100.00,South,184,2.0,-999.0,90,0.00,,,-99.99,7.600000,,2013-07-13 00:33:00,
2013-07-12 20:56:00,76.0,74.0,-100.00,SW,216,1.0,-999.0,91,0.00,,,-99.99,1.800000,,2013-07-13 00:56:00,
2013-07-12 21:24:00,75.0,73.0,-100.00,SSW,202,2.0,-999.0,94,0.00,,,-99.99,0.000000,,2013-07-13 01:24:00,
2013-07-12 21:57:00,75.0,74.0,-100.00,South,187,1.0,-999.0,96,0.00,,,-99.99,0.000000,,2013-07-13 01:57:00,
2013-07-12 22:25:00,74.0,73.0,-100.00,SSE,164,3.0,-999.0,97,0.00,,,-99.99,0.000000,,2013-07-13 02:25:00,
2013-07-12 22:36:00,74.0,73.0,-100.00,SSE,164,3.0,-999.0,97,0.00,,,-99.99,0.000000,,2013-07-13 02:36:00,
2013-07-12 22:56:00,75.0,74.0,-100.00,South,178,7.0,-999.0,97,0.00,,,-99.99,0.000000,,2013-07-13 02:56:00,
2013-07-12 23:13:00,75.0,74.0,-100.00,South,177,6.0,-999.0,97,0.00,,,-99.99,0.000000,,2013-07-13 03:13:00,
2013-07-12 23:27:00,75.0,74.0,-100.00,South,189,4.0,-999.0,97,0.00,,,-99.99,0.000000,,2013-07-13 03:27:00,
2013-07-12 23:45:00,74.0,74.0,-100.00,SSW,198,4.0,-999.0,97,0.00,,,-99.99,0.000000,,2013-07-13 03:45:00,
2013-07-12 23:57:00,74.0,74.0,-100.00,SSW,199,6.0,-999.0,97,0.00,,,-99.99,0.000000,,2013-07-13 03:57:00,